AFR156 LFKJ-LFML
Flight info
| Callsign | AFR156 |
|---|---|
| Flight time | 0h 45m |
| Altitude | 22000 |
| Route | TINOT |
| Aircraft | A320/M-SDE3FGHIRWY/LB1 |
Departure
| Time | 2026-05-04 17:19 |
|---|---|
| Airport | Ajaccio Napoléon Bonaparte airport (LFKJ) |
Arrival
| Time | 2026-05-04 18:05 |
|---|---|
| Airport | Marseille Provence Airport (LFML) |
| Time | Latitude | Longitude | Altitude | Speed | Heading |
|---|---|---|---|---|---|
| 2026-05-04 17:12 | 41.92010 | 8.79613 | 26 ft | 0 kts | 342° |
| 2026-05-04 17:14 | 41.92019 | 8.79632 | 31 ft | 3 kts | 84° |
| 2026-05-04 17:14 | 41.92033 | 8.79671 | 28 ft | 9 kts | 51° |
| 2026-05-04 17:14 | 41.92133 | 8.79753 | 30 ft | 13 kts | 25° |
| 2026-05-04 17:15 | 41.92242 | 8.79822 | 29 ft | 18 kts | 25° |
| 2026-05-04 17:15 | 41.92491 | 8.79976 | 29 ft | 21 kts | 25° |
| 2026-05-04 17:16 | 41.92740 | 8.80135 | 30 ft | 15 kts | 30° |
| 2026-05-04 17:16 | 41.92931 | 8.80366 | 30 ft | 9 kts | 45° |
| 2026-05-04 17:17 | 41.92958 | 8.80417 | 31 ft | 5 kts | 69° |
| 2026-05-04 17:17 | 41.93013 | 8.80639 | 31 ft | 10 kts | 15° |
| 2026-05-04 17:18 | 41.93101 | 8.80645 | 32 ft | 13 kts | 359° |
| 2026-05-04 17:18 | 41.93095 | 8.80682 | 32 ft | 8 kts | 187° |
| 2026-05-04 17:19 | 41.92867 | 8.80549 | 31 ft | 78 kts | 205° |
| 2026-05-04 17:19 | 41.91131 | 8.79411 | 775 ft | 162 kts | 210° |
| 2026-05-04 17:20 | 41.89656 | 8.76995 | 2210 ft | 180 kts | 240° |
| 2026-05-04 17:20 | 41.88359 | 8.73732 | 2948 ft | 219 kts | 240° |
| 2026-05-04 17:20 | 41.87575 | 8.71847 | 3354 ft | 243 kts | 238° |
| 2026-05-04 17:21 | 41.85750 | 8.67774 | 4951 ft | 257 kts | 236° |
| 2026-05-04 17:21 | 41.83865 | 8.63657 | 6727 ft | 263 kts | 237° |
| 2026-05-04 17:22 | 41.83027 | 8.61451 | 7545 ft | 269 kts | 250° |
| 2026-05-04 17:22 | 41.82716 | 8.58961 | 8358 ft | 276 kts | 268° |
| 2026-05-04 17:23 | 41.84456 | 8.51389 | 10493 ft | 303 kts | 288° |
| 2026-05-04 17:23 | 41.85225 | 8.48684 | 10721 ft | 326 kts | 288° |
| 2026-05-04 17:23 | 41.86930 | 8.42671 | 11539 ft | 354 kts | 288° |
| 2026-05-04 17:24 | 41.87812 | 8.39577 | 12244 ft | 358 kts | 288° |
| 2026-05-04 17:24 | 41.90495 | 8.30095 | 14364 ft | 366 kts | 288° |
| 2026-05-04 17:25 | 41.91399 | 8.26892 | 14975 ft | 370 kts | 288° |
| 2026-05-04 17:25 | 41.93232 | 8.20360 | 16150 ft | 377 kts | 288° |
| 2026-05-04 17:26 | 41.95088 | 8.13749 | 17296 ft | 384 kts | 288° |
| 2026-05-04 17:26 | 41.97944 | 8.03552 | 18864 ft | 394 kts | 288° |
| 2026-05-04 17:27 | 41.99874 | 7.96603 | 19838 ft | 399 kts | 288° |
| 2026-05-04 17:27 | 42.01837 | 7.89538 | 20769 ft | 405 kts | 287° |
| 2026-05-04 17:28 | 42.03820 | 7.82403 | 21692 ft | 410 kts | 287° |
| 2026-05-04 17:29 | 42.06861 | 7.71373 | 22025 ft | 432 kts | 287° |
| 2026-05-04 17:29 | 42.10000 | 7.59932 | 22023 ft | 436 kts | 287° |
| 2026-05-04 17:30 | 42.13135 | 7.48499 | 22022 ft | 435 kts | 287° |
| 2026-05-04 17:31 | 42.15215 | 7.40854 | 22022 ft | 435 kts | 287° |
| 2026-05-04 17:31 | 42.18335 | 7.29385 | 22019 ft | 434 kts | 287° |
| 2026-05-04 17:32 | 42.20407 | 7.21717 | 22009 ft | 435 kts | 287° |
| 2026-05-04 17:33 | 42.23498 | 7.10204 | 22007 ft | 435 kts | 287° |
| 2026-05-04 17:33 | 42.24533 | 7.06369 | 22009 ft | 435 kts | 287° |
| 2026-05-04 17:34 | 42.27609 | 6.94890 | 22006 ft | 435 kts | 287° |
| 2026-05-04 17:34 | 42.28634 | 6.91045 | 22005 ft | 435 kts | 287° |
| 2026-05-04 17:35 | 42.31700 | 6.79508 | 22017 ft | 435 kts | 287° |
| 2026-05-04 17:35 | 42.33742 | 6.71794 | 22020 ft | 435 kts | 287° |
| 2026-05-04 17:35 | 42.34757 | 6.67959 | 22017 ft | 435 kts | 287° |
| 2026-05-04 17:36 | 42.35770 | 6.64122 | 22010 ft | 434 kts | 287° |
| 2026-05-04 17:36 | 42.36784 | 6.60272 | 22010 ft | 434 kts | 287° |
| 2026-05-04 17:36 | 42.37797 | 6.56418 | 22012 ft | 434 kts | 287° |
| 2026-05-04 17:36 | 42.38795 | 6.52619 | 22008 ft | 434 kts | 287° |
| 2026-05-04 17:37 | 42.39804 | 6.48772 | 22009 ft | 434 kts | 286° |
| 2026-05-04 17:37 | 42.40817 | 6.44893 | 22024 ft | 434 kts | 286° |
| 2026-05-04 17:37 | 42.41833 | 6.41007 | 22016 ft | 434 kts | 286° |
| 2026-05-04 17:37 | 42.42841 | 6.37150 | 22009 ft | 434 kts | 286° |
| 2026-05-04 17:38 | 42.43832 | 6.33353 | 22007 ft | 434 kts | 286° |
| 2026-05-04 17:38 | 42.44839 | 6.29477 | 22008 ft | 435 kts | 286° |
| 2026-05-04 17:38 | 42.45834 | 6.25641 | 22004 ft | 435 kts | 286° |
| 2026-05-04 17:38 | 42.46833 | 6.21777 | 21999 ft | 435 kts | 286° |
| 2026-05-04 17:39 | 42.48838 | 6.14024 | 22000 ft | 435 kts | 286° |
| 2026-05-04 17:39 | 42.49840 | 6.10139 | 22000 ft | 435 kts | 286° |
| 2026-05-04 17:39 | 42.50831 | 6.06286 | 22006 ft | 435 kts | 286° |
| 2026-05-04 17:40 | 42.51827 | 6.02417 | 22009 ft | 435 kts | 286° |
| 2026-05-04 17:40 | 42.52823 | 5.98543 | 22009 ft | 434 kts | 286° |
| 2026-05-04 17:40 | 42.53811 | 5.94685 | 22007 ft | 434 kts | 286° |
| 2026-05-04 17:40 | 42.54798 | 5.90824 | 22002 ft | 434 kts | 286° |
| 2026-05-04 17:41 | 42.55778 | 5.86987 | 22000 ft | 434 kts | 286° |
| 2026-05-04 17:41 | 42.56774 | 5.83087 | 21998 ft | 434 kts | 286° |
| 2026-05-04 17:41 | 42.57761 | 5.79224 | 21996 ft | 434 kts | 286° |
| 2026-05-04 17:41 | 42.58737 | 5.75404 | 21987 ft | 433 kts | 286° |
| 2026-05-04 17:42 | 42.59724 | 5.71520 | 21914 ft | 432 kts | 286° |
| 2026-05-04 17:42 | 42.60688 | 5.67713 | 21680 ft | 427 kts | 285° |
| 2026-05-04 17:42 | 42.61649 | 5.63904 | 21414 ft | 425 kts | 285° |
| 2026-05-04 17:42 | 42.62602 | 5.60123 | 21158 ft | 423 kts | 285° |
| 2026-05-04 17:43 | 42.63558 | 5.56332 | 20845 ft | 420 kts | 285° |
| 2026-05-04 17:43 | 42.64496 | 5.52604 | 20220 ft | 416 kts | 285° |
| 2026-05-04 17:43 | 42.65428 | 5.48900 | 19612 ft | 413 kts | 285° |
| 2026-05-04 17:43 | 42.66345 | 5.45237 | 19025 ft | 409 kts | 285° |
| 2026-05-04 17:44 | 42.67259 | 5.41571 | 18459 ft | 406 kts | 285° |
| 2026-05-04 17:44 | 42.68162 | 5.37982 | 17862 ft | 403 kts | 287° |
| 2026-05-04 17:44 | 42.69378 | 5.34543 | 17341 ft | 402 kts | 298° |
| 2026-05-04 17:44 | 42.71055 | 5.31494 | 16824 ft | 403 kts | 309° |
| 2026-05-04 17:45 | 42.73176 | 5.28926 | 16491 ft | 415 kts | 321° |
| 2026-05-04 17:45 | 42.75639 | 5.26845 | 16116 ft | 417 kts | 327° |
| 2026-05-04 17:45 | 42.78148 | 5.24849 | 15738 ft | 415 kts | 326° |
| 2026-05-04 17:45 | 42.80634 | 5.22870 | 15359 ft | 413 kts | 326° |
| 2026-05-04 17:46 | 42.83112 | 5.20892 | 14993 ft | 410 kts | 326° |
| 2026-05-04 17:46 | 42.85563 | 5.18930 | 14622 ft | 408 kts | 326° |
| 2026-05-04 17:46 | 42.88002 | 5.16974 | 14252 ft | 405 kts | 326° |
| 2026-05-04 17:46 | 42.90416 | 5.15033 | 13894 ft | 402 kts | 326° |
| 2026-05-04 17:47 | 42.92849 | 5.13266 | 13495 ft | 403 kts | 333° |
| 2026-05-04 17:47 | 42.95543 | 5.12060 | 13139 ft | 405 kts | 344° |
| 2026-05-04 17:47 | 42.98322 | 5.11548 | 12771 ft | 407 kts | 355° |
| 2026-05-04 17:47 | 43.01172 | 5.11360 | 12409 ft | 404 kts | 355° |
| 2026-05-04 17:48 | 43.03942 | 5.11175 | 12057 ft | 402 kts | 355° |
| 2026-05-04 17:48 | 43.06736 | 5.10983 | 11698 ft | 401 kts | 355° |
| 2026-05-04 17:48 | 43.09506 | 5.10785 | 11341 ft | 397 kts | 355° |
| 2026-05-04 17:48 | 43.12257 | 5.10588 | 10999 ft | 392 kts | 355° |
| 2026-05-04 17:49 | 43.14929 | 5.10399 | 10859 ft | 376 kts | 355° |
| 2026-05-04 17:49 | 43.17466 | 5.10220 | 10730 ft | 353 kts | 355° |
| 2026-05-04 17:49 | 43.19838 | 5.10053 | 10574 ft | 329 kts | 355° |
| 2026-05-04 17:49 | 43.22081 | 5.09893 | 10346 ft | 319 kts | 354° |
| 2026-05-04 17:50 | 43.24289 | 5.09730 | 10261 ft | 316 kts | 355° |
| 2026-05-04 17:50 | 43.26466 | 5.09570 | 10165 ft | 312 kts | 355° |
| 2026-05-04 17:50 | 43.28645 | 5.09411 | 10035 ft | 314 kts | 354° |
| 2026-05-04 17:50 | 43.30846 | 5.09251 | 9867 ft | 316 kts | 355° |
| 2026-05-04 17:51 | 43.33027 | 5.09091 | 9601 ft | 311 kts | 355° |
| 2026-05-04 17:51 | 43.35173 | 5.08936 | 9342 ft | 308 kts | 355° |
| 2026-05-04 17:51 | 43.37316 | 5.08780 | 9107 ft | 308 kts | 355° |
| 2026-05-04 17:51 | 43.39420 | 5.08849 | 8869 ft | 306 kts | 7° |
| 2026-05-04 17:52 | 43.41542 | 5.09310 | 8616 ft | 304 kts | 8° |
| 2026-05-04 17:52 | 43.43631 | 5.09770 | 8369 ft | 305 kts | 8° |
| 2026-05-04 17:52 | 43.45702 | 5.10224 | 8121 ft | 304 kts | 8° |
| 2026-05-04 17:52 | 43.47790 | 5.10679 | 7875 ft | 301 kts | 8° |
| 2026-05-04 17:53 | 43.49854 | 5.11127 | 7631 ft | 301 kts | 8° |
| 2026-05-04 17:53 | 43.51924 | 5.11577 | 7395 ft | 301 kts | 9° |
| 2026-05-04 17:53 | 43.53990 | 5.12027 | 7140 ft | 297 kts | 9° |
| 2026-05-04 17:53 | 43.56015 | 5.12468 | 6909 ft | 295 kts | 9° |
| 2026-05-04 17:54 | 43.58056 | 5.12854 | 6664 ft | 296 kts | 2° |
| 2026-05-04 17:54 | 43.60095 | 5.12639 | 6411 ft | 293 kts | 346° |
| 2026-05-04 17:54 | 43.61997 | 5.11721 | 6166 ft | 289 kts | 331° |
| 2026-05-04 17:54 | 43.63688 | 5.10306 | 6014 ft | 280 kts | 326° |
| 2026-05-04 17:55 | 43.65304 | 5.08902 | 5901 ft | 269 kts | 326° |
| 2026-05-04 17:55 | 43.66860 | 5.07556 | 5773 ft | 258 kts | 326° |
| 2026-05-04 17:55 | 43.67854 | 5.06690 | 5696 ft | 252 kts | 324° |
| 2026-05-04 17:55 | 43.68996 | 5.04954 | 5570 ft | 242 kts | 288° |
| 2026-05-04 17:56 | 43.68943 | 5.02077 | 5410 ft | 225 kts | 237° |
| 2026-05-04 17:56 | 43.68047 | 5.00330 | 5291 ft | 222 kts | 226° |
| 2026-05-04 17:56 | 43.67079 | 4.98717 | 5127 ft | 215 kts | 224° |
| 2026-05-04 17:56 | 43.66415 | 4.97686 | 5033 ft | 209 kts | 219° |
| 2026-05-04 17:57 | 43.65286 | 4.96564 | 4985 ft | 194 kts | 201° |
| 2026-05-04 17:57 | 43.64061 | 4.96014 | 4933 ft | 177 kts | 185° |
| 2026-05-04 17:57 | 43.62887 | 4.95965 | 4825 ft | 163 kts | 171° |
| 2026-05-04 17:57 | 43.61815 | 4.96321 | 4678 ft | 154 kts | 157° |
| 2026-05-04 17:58 | 43.60889 | 4.97007 | 4519 ft | 149 kts | 144° |
| 2026-05-04 17:58 | 43.60129 | 4.97957 | 4337 ft | 146 kts | 135° |
| 2026-05-04 17:58 | 43.59440 | 4.98947 | 4157 ft | 143 kts | 135° |
| 2026-05-04 17:58 | 43.58756 | 4.99929 | 3965 ft | 140 kts | 134° |
| 2026-05-04 17:59 | 43.58092 | 5.00882 | 3811 ft | 134 kts | 134° |
| 2026-05-04 17:59 | 43.57468 | 5.01777 | 3613 ft | 127 kts | 134° |
| 2026-05-04 17:59 | 43.56265 | 5.03502 | 3283 ft | 124 kts | 133° |
| 2026-05-04 18:00 | 43.55670 | 5.04354 | 3117 ft | 123 kts | 132° |
| 2026-05-04 18:00 | 43.55077 | 5.05205 | 2949 ft | 123 kts | 132° |
| 2026-05-04 18:00 | 43.54485 | 5.06051 | 2784 ft | 122 kts | 132° |
| 2026-05-04 18:00 | 43.53897 | 5.06894 | 2622 ft | 122 kts | 132° |
| 2026-05-04 18:01 | 43.53306 | 5.07739 | 2467 ft | 122 kts | 131° |
| 2026-05-04 18:01 | 43.52719 | 5.08580 | 2294 ft | 122 kts | 131° |
| 2026-05-04 18:01 | 43.52130 | 5.09442 | 2054 ft | 123 kts | 131° |
| 2026-05-04 18:02 | 43.50976 | 5.11144 | 1711 ft | 120 kts | 133° |
| 2026-05-04 18:02 | 43.50383 | 5.11965 | 1618 ft | 122 kts | 133° |
| 2026-05-04 18:02 | 43.49786 | 5.12791 | 1459 ft | 122 kts | 134° |
| 2026-05-04 18:02 | 43.49188 | 5.13621 | 1292 ft | 121 kts | 132° |
| 2026-05-04 18:03 | 43.48606 | 5.14453 | 1152 ft | 121 kts | 131° |
| 2026-05-04 18:03 | 43.48016 | 5.15284 | 982 ft | 123 kts | 133° |
| 2026-05-04 18:03 | 43.47416 | 5.16127 | 828 ft | 122 kts | 130° |
| 2026-05-04 18:03 | 43.46818 | 5.17009 | 605 ft | 134 kts | 131° |
| 2026-05-04 18:04 | 43.46175 | 5.17927 | 356 ft | 134 kts | 130° |
| 2026-05-04 18:04 | 43.45505 | 5.18895 | 266 ft | 140 kts | 131° |
| 2026-05-04 18:04 | 43.44241 | 5.20695 | 36 ft | 111 kts | 131° |
| 2026-05-04 18:05 | 43.43883 | 5.21211 | 36 ft | 53 kts | 134° |
| 2026-05-04 18:05 | 43.43652 | 5.21541 | 37 ft | 44 kts | 134° |
| 2026-05-04 18:05 | 43.43448 | 5.21822 | 35 ft | 39 kts | 134° |
| 2026-05-04 18:05 | 43.43334 | 5.22052 | 37 ft | 23 kts | 96° |
| 2026-05-04 18:06 | 43.43457 | 5.22257 | 37 ft | 17 kts | 330° |
| 2026-05-04 18:06 | 43.43553 | 5.22181 | 37 ft | 15 kts | 330° |
| 2026-05-04 18:06 | 43.43633 | 5.22117 | 37 ft | 12 kts | 334° |
| 2026-05-04 18:07 | 43.43693 | 5.22143 | 37 ft | 8 kts | 44° |
| 2026-05-04 18:07 | 43.43733 | 5.22197 | 37 ft | 9 kts | 44° |
| 2026-05-04 18:07 | 43.43792 | 5.22229 | 37 ft | 11 kts | 353° |
| 2026-05-04 18:07 | 43.43856 | 5.22201 | 37 ft | 8 kts | 335° |
| 2026-05-04 18:08 | 43.43904 | 5.22158 | 36 ft | 9 kts | 317° |
| 2026-05-04 18:08 | 43.43938 | 5.22123 | 37 ft | 2 kts | 10° |
| 2026-05-04 18:08 | 43.43956 | 5.22144 | 37 ft | 5 kts | 49° |
| 2026-05-04 18:08 | 43.43970 | 5.22175 | 37 ft | 2 kts | 58° |
| 2026-05-04 18:09 | 43.43977 | 5.22190 | 37 ft | 0 kts | 58° |